Startpagina
METAR-TAF:

METAR-TAF

Vliegvelden :

Oostende, België

Internationale Luchthaven Oostende-Brugge

breedte: 51-12N, lengte: 002-52E, hoogte: 4 m

Actueel weer

Dit bericht is 28 minuten geleden gemaakt, om 18:50 UTC
Wind 5 kt uit het noordoosten
Temperatuur 19°C
Vochtigheid 60%
Druk 1015 hPa
Zicht 10 km of meer
geen wolken onder 1500 m en geen cumulonimbus

METAR: EBOS 221850Z 04005KT CAVOK 19/11 Q1015 NOSIG

Tijdstip: 21:18 (19:18 UTC)

Verwachting

Dit bericht is 2 uur en het 8 minuten geleden gemaakt, om 17:10 UTC
Verwachting geldig van 22 om 18 UTC tot 23 om 24 UTC
Wind 4 kt uit variabele richting
Zicht 10 km of meer
geen wolken onder 1500 m en geen cumulonimbus
Wijzigt naar
van 23 om 02 UTC tot 23 om 04 UTC
Wind 12 kt uit het westnoordwesten
Wijzigt naar
van 23 om 14 UTC tot 23 om 16 UTC
Wind 5 kt uit het westzuidwesten

TAF: EBOS 221710Z 2218/2324 VRB04KT CAVOK BECMG 2302/2304 30012KT BECMG 2314/2316 24005KT

Waarnemingen en weersverwachtingen van meer dan 4000 vliegvelden (METAR en TAF).

De beschikbare stations zijn de gele en rode punten op de kaart.

Ga met uw muis naar het station om de naam te zien.

Klik dan om waarnemingen en weersverwachtingen te zien.

kaart wijzigen: klik op de groene knoppen met een zwart kruis om in te zoomen, op de groene knop met een streepje om uit te zoomen of op de groene pijlen voor aangrenzende kaarten.


METAR-TAF: